Terminal Aerodrome Forecast
Issued by NWS

Current Version | Previous Version | Graphics & Text | Print | Product List | Glossary On
Versions: 1 2 3 4 5 6 7 8 9 10 11 12 13 14 15 16 17 18 19 20 21 22 23 24 25 26
000
FTUS41 KRLX 212300 RRA
TAFCKB
TAF
KCKB 212348Z 2200/2224 31004KT 6SM -SHRA BR SCT015 OVC035
      TEMPO 2200/2204 3SM -SHRA BR SCT008 BKN015 OVC025
     FM220400 30004KT P6SM OVC015
     FM222100 33006KT P6SM BKN025=

USA.gov is the U.S. government's official web portal to all federal, state and local government web resources and services.